sensor_id;sensor_type;location;lat;lon;timestamp;P1;durP1;ratioP1;P2;durP2;ratioP2
17228;SDS011;8731;50.364;8.958;2023-02-01T00:03:00;4.17;;;3.47;;
17228;SDS011;8731;50.364;8.958;2023-02-01T00:07:23;4.53;;;3.33;;
17228;SDS011;8731;50.364;8.958;2023-02-01T00:11:46;6.50;;;4.87;;
17228;SDS011;8731;50.364;8.958;2023-02-01T00:16:09;5.07;;;3.80;;
17228;SDS011;8731;50.364;8.958;2023-02-01T00:20:36;4.50;;;3.67;;
17228;SDS011;8731;50.364;8.958;2023-02-01T00:24:58;4.93;;;3.57;;
17228;SDS011;8731;50.364;8.958;2023-02-01T00:29:21;8.37;;;4.73;;
17228;SDS011;8731;50.364;8.958;2023-02-01T00:33:46;6.70;;;4.90;;
17228;SDS011;8731;50.364;8.958;2023-02-01T00:38:09;5.47;;;4.00;;
17228;SDS011;8731;50.364;8.958;2023-02-01T00:42:31;5.67;;;4.07;;
17228;SDS011;8731;50.364;8.958;2023-02-01T00:46:54;6.03;;;4.40;;
17228;SDS011;8731;50.364;8.958;2023-02-01T00:51:18;6.43;;;4.50;;
17228;SDS011;8731;50.364;8.958;2023-02-01T00:55:44;6.13;;;4.70;;
17228;SDS011;8731;50.364;8.958;2023-02-01T01:00:07;7.63;;;4.60;;
17228;SDS011;8731;50.364;8.958;2023-02-01T01:04:32;5.00;;;4.30;;
17228;SDS011;8731;50.364;8.958;2023-02-01T01:08:55;6.17;;;4.50;;
17228;SDS011;8731;50.364;8.958;2023-02-01T01:13:19;5.63;;;4.40;;
17228;SDS011;8731;50.364;8.958;2023-02-01T01:17:41;5.60;;;4.30;;
17228;SDS011;8731;50.364;8.958;2023-02-01T01:22:05;6.30;;;4.90;;
17228;SDS011;8731;50.364;8.958;2023-02-01T01:26:28;8.37;;;5.27;;
17228;SDS011;8731;50.364;8.958;2023-02-01T01:30:52;5.83;;;4.97;;
17228;SDS011;8731;50.364;8.958;2023-02-01T01:35:14;6.87;;;5.77;;
17228;SDS011;8731;50.364;8.958;2023-02-01T01:39:37;6.03;;;5.43;;
17228;SDS011;8731;50.364;8.958;2023-02-01T01:44:01;8.23;;;5.83;;
17228;SDS011;8731;50.364;8.958;2023-02-01T01:48:26;8.03;;;4.93;;
17228;SDS011;8731;50.364;8.958;2023-02-01T01:52:52;6.73;;;6.00;;
17228;SDS011;8731;50.364;8.958;2023-02-01T01:57:22;6.73;;;6.03;;
17228;SDS011;8731;50.364;8.958;2023-02-01T02:01:50;8.67;;;5.80;;
17228;SDS011;8731;50.364;8.958;2023-02-01T02:06:15;9.03;;;5.70;;
17228;SDS011;8731;50.364;8.958;2023-02-01T02:10:51;7.13;;;5.63;;
17228;SDS011;8731;50.364;8.958;2023-02-01T02:15:25;6.90;;;5.03;;
17228;SDS011;8731;50.364;8.958;2023-02-01T02:30:09;11.03;;;6.80;;
17228;SDS011;8731;50.364;8.958;2023-02-01T02:35:02;8.03;;;6.03;;
17228;SDS011;8731;50.364;8.958;2023-02-01T02:39:38;8.43;;;6.30;;
17228;SDS011;8731;50.364;8.958;2023-02-01T02:44:13;9.97;;;6.27;;
17228;SDS011;8731;50.364;8.958;2023-02-01T02:49:04;8.13;;;6.17;;
17228;SDS011;8731;50.364;8.958;2023-02-01T02:53:34;9.40;;;6.80;;
17228;SDS011;8731;50.364;8.958;2023-02-01T02:58:25;9.07;;;6.03;;
17228;SDS011;8731;50.364;8.958;2023-02-01T03:03:05;9.80;;;6.27;;
17228;SDS011;8731;50.364;8.958;2023-02-01T03:07:47;9.30;;;6.17;;
17228;SDS011;8731;50.364;8.958;2023-02-01T03:12:23;8.17;;;6.53;;
17228;SDS011;8731;50.364;8.958;2023-02-01T03:17:02;7.57;;;6.20;;
17228;SDS011;8731;50.364;8.958;2023-02-01T03:21:31;9.37;;;6.40;;
17228;SDS011;8731;50.364;8.958;2023-02-01T03:25:58;7.90;;;5.73;;
17228;SDS011;8731;50.364;8.958;2023-02-01T03:30:27;10.07;;;5.07;;
17228;SDS011;8731;50.364;8.958;2023-02-01T03:34:53;9.23;;;4.87;;
17228;SDS011;8731;50.364;8.958;2023-02-01T03:39:16;7.97;;;4.57;;
17228;SDS011;8731;50.364;8.958;2023-02-01T03:43:48;7.60;;;4.47;;
17228;SDS011;8731;50.364;8.958;2023-02-01T03:48:18;9.57;;;4.17;;
17228;SDS011;8731;50.364;8.958;2023-02-01T03:52:44;7.40;;;4.20;;
17228;SDS011;8731;50.364;8.958;2023-02-01T03:57:13;9.47;;;3.67;;
17228;SDS011;8731;50.364;8.958;2023-02-01T04:01:39;10.37;;;4.17;;
17228;SDS011;8731;50.364;8.958;2023-02-01T04:06:03;6.33;;;3.70;;
17228;SDS011;8731;50.364;8.958;2023-02-01T04:10:27;9.20;;;3.57;;
17228;SDS011;8731;50.364;8.958;2023-02-01T04:14:50;5.40;;;3.20;;
17228;SDS011;8731;50.364;8.958;2023-02-01T04:19:12;9.67;;;3.87;;
17228;SDS011;8731;50.364;8.958;2023-02-01T04:23:35;10.77;;;4.70;;
17228;SDS011;8731;50.364;8.958;2023-02-01T04:27:58;11.97;;;5.43;;
17228;SDS011;8731;50.364;8.958;2023-02-01T04:32:20;8.07;;;3.03;;
17228;SDS011;8731;50.364;8.958;2023-02-01T04:36:42;13.13;;;4.10;;
17228;SDS011;8731;50.364;8.958;2023-02-01T04:41:06;8.40;;;3.50;;
17228;SDS011;8731;50.364;8.958;2023-02-01T04:45:28;10.83;;;3.97;;
17228;SDS011;8731;50.364;8.958;2023-02-01T04:49:51;6.60;;;3.50;;
17228;SDS011;8731;50.364;8.958;2023-02-01T04:54:13;14.27;;;4.37;;
17228;SDS011;8731;50.364;8.958;2023-02-01T04:58:37;10.70;;;3.33;;
17228;SDS011;8731;50.364;8.958;2023-02-01T05:02:59;8.43;;;4.13;;
17228;SDS011;8731;50.364;8.958;2023-02-01T05:07:22;10.13;;;3.73;;
17228;SDS011;8731;50.364;8.958;2023-02-01T05:11:44;10.13;;;3.63;;
17228;SDS011;8731;50.364;8.958;2023-02-01T05:16:26;11.27;;;3.43;;
17228;SDS011;8731;50.364;8.958;2023-02-01T05:20:48;9.00;;;3.50;;
17228;SDS011;8731;50.364;8.958;2023-02-01T05:25:10;9.83;;;4.03;;
17228;SDS011;8731;50.364;8.958;2023-02-01T05:29:33;13.43;;;4.40;;
17228;SDS011;8731;50.364;8.958;2023-02-01T05:33:56;10.90;;;4.10;;
17228;SDS011;8731;50.364;8.958;2023-02-01T05:38:18;10.90;;;4.30;;
17228;SDS011;8731;50.364;8.958;2023-02-01T05:42:41;9.03;;;3.97;;
17228;SDS011;8731;50.364;8.958;2023-02-01T05:47:03;11.03;;;4.27;;
17228;SDS011;8731;50.364;8.958;2023-02-01T05:51:27;7.73;;;4.07;;
17228;SDS011;8731;50.364;8.958;2023-02-01T05:55:50;11.00;;;5.40;;
17228;SDS011;8731;50.364;8.958;2023-02-01T06:00:12;13.63;;;5.97;;
17228;SDS011;8731;50.364;8.958;2023-02-01T06:04:35;13.57;;;4.40;;
17228;SDS011;8731;50.364;8.958;2023-02-01T06:08:59;13.27;;;4.80;;
17228;SDS011;8731;50.364;8.958;2023-02-01T06:13:21;13.10;;;5.03;;
17228;SDS011;8731;50.364;8.958;2023-02-01T06:17:44;14.90;;;5.20;;
17228;SDS011;8731;50.364;8.958;2023-02-01T06:22:07;10.03;;;3.60;;
17228;SDS011;8731;50.364;8.958;2023-02-01T06:26:31;11.93;;;4.00;;
17228;SDS011;8731;50.364;8.958;2023-02-01T06:30:53;13.67;;;4.37;;
17228;SDS011;8731;50.364;8.958;2023-02-01T06:35:18;14.17;;;4.13;;
17228;SDS011;8731;50.364;8.958;2023-02-01T06:39:40;13.87;;;4.70;;
17228;SDS011;8731;50.364;8.958;2023-02-01T06:44:04;14.93;;;6.07;;
17228;SDS011;8731;50.364;8.958;2023-02-01T06:48:26;16.37;;;5.37;;
17228;SDS011;8731;50.364;8.958;2023-02-01T06:52:49;16.63;;;4.33;;
17228;SDS011;8731;50.364;8.958;2023-02-01T06:57:11;14.23;;;4.33;;
17228;SDS011;8731;50.364;8.958;2023-02-01T07:01:34;10.23;;;4.00;;
17228;SDS011;8731;50.364;8.958;2023-02-01T07:05:57;17.97;;;3.67;;
17228;SDS011;8731;50.364;8.958;2023-02-01T07:10:19;12.57;;;5.73;;
17228;SDS011;8731;50.364;8.958;2023-02-01T07:14:41;16.27;;;5.30;;
17228;SDS011;8731;50.364;8.958;2023-02-01T07:19:05;16.73;;;4.77;;
17228;SDS011;8731;50.364;8.958;2023-02-01T07:23:27;13.80;;;5.37;;
17228;SDS011;8731;50.364;8.958;2023-02-01T07:27:50;23.37;;;8.73;;
17228;SDS011;8731;50.364;8.958;2023-02-01T07:32:12;36.03;;;17.10;;
17228;SDS011;8731;50.364;8.958;2023-02-01T07:36:39;39.27;;;21.53;;
17228;SDS011;8731;50.364;8.958;2023-02-01T07:41:02;17.80;;;6.90;;
17228;SDS011;8731;50.364;8.958;2023-02-01T07:45:28;15.03;;;4.37;;
17228;SDS011;8731;50.364;8.958;2023-02-01T07:49:50;13.67;;;3.37;;
17228;SDS011;8731;50.364;8.958;2023-02-01T07:54:13;15.37;;;4.27;;
17228;SDS011;8731;50.364;8.958;2023-02-01T07:58:36;11.33;;;3.67;;
17228;SDS011;8731;50.364;8.958;2023-02-01T08:02:58;9.93;;;3.53;;
17228;SDS011;8731;50.364;8.958;2023-02-01T08:07:21;12.67;;;3.40;;
17228;SDS011;8731;50.364;8.958;2023-02-01T08:11:45;13.27;;;3.37;;
17228;SDS011;8731;50.364;8.958;2023-02-01T08:16:08;13.23;;;2.80;;
17228;SDS011;8731;50.364;8.958;2023-02-01T08:20:33;13.17;;;2.90;;
17228;SDS011;8731;50.364;8.958;2023-02-01T08:24:56;13.20;;;3.20;;
17228;SDS011;8731;50.364;8.958;2023-02-01T08:29:22;11.83;;;3.40;;
17228;SDS011;8731;50.364;8.958;2023-02-01T08:33:47;12.47;;;3.10;;
17228;SDS011;8731;50.364;8.958;2023-02-01T08:38:11;11.67;;;3.37;;
17228;SDS011;8731;50.364;8.958;2023-02-01T08:42:33;12.60;;;3.33;;
17228;SDS011;8731;50.364;8.958;2023-02-01T08:47:15;15.33;;;3.40;;
17228;SDS011;8731;50.364;8.958;2023-02-01T08:51:37;11.77;;;3.13;;
17228;SDS011;8731;50.364;8.958;2023-02-01T08:56:00;10.90;;;3.27;;
17228;SDS011;8731;50.364;8.958;2023-02-01T09:00:22;11.27;;;3.40;;
17228;SDS011;8731;50.364;8.958;2023-02-01T09:04:46;14.17;;;3.37;;
17228;SDS011;8731;50.364;8.958;2023-02-01T09:09:08;18.53;;;3.77;;
17228;SDS011;8731;50.364;8.958;2023-02-01T09:13:31;13.63;;;3.17;;
17228;SDS011;8731;50.364;8.958;2023-02-01T09:17:55;11.83;;;3.47;;
17228;SDS011;8731;50.364;8.958;2023-02-01T09:22:19;13.93;;;3.20;;
17228;SDS011;8731;50.364;8.958;2023-02-01T09:26:41;10.33;;;2.97;;
17228;SDS011;8731;50.364;8.958;2023-02-01T09:31:04;15.27;;;3.23;;
17228;SDS011;8731;50.364;8.958;2023-02-01T09:35:26;14.87;;;4.43;;
17228;SDS011;8731;50.364;8.958;2023-02-01T09:39:50;16.27;;;4.37;;
17228;SDS011;8731;50.364;8.958;2023-02-01T09:44:25;12.48;;;3.60;;
17228;SDS011;8731;50.364;8.958;2023-02-01T09:49:00;17.50;;;4.10;;
17228;SDS011;8731;50.364;8.958;2023-02-01T09:53:28;16.03;;;4.17;;
17228;SDS011;8731;50.364;8.958;2023-02-01T09:57:56;13.00;;;3.93;;
17228;SDS011;8731;50.364;8.958;2023-02-01T10:02:24;19.30;;;3.80;;
17228;SDS011;8731;50.364;8.958;2023-02-01T10:06:53;14.43;;;4.00;;
17228;SDS011;8731;50.364;8.958;2023-02-01T10:11:31;14.77;;;4.00;;
17228;SDS011;8731;50.364;8.958;2023-02-01T10:16:16;16.43;;;4.27;;
17228;SDS011;8731;50.364;8.958;2023-02-01T10:20:56;12.40;;;4.07;;
17228;SDS011;8731;50.364;8.958;2023-02-01T10:25:26;16.87;;;4.23;;
17228;SDS011;8731;50.364;8.958;2023-02-01T10:29:57;13.67;;;4.00;;
17228;SDS011;8731;50.364;8.958;2023-02-01T10:34:30;15.17;;;3.83;;
17228;SDS011;8731;50.364;8.958;2023-02-01T10:38:56;14.13;;;3.80;;
17228;SDS011;8731;50.364;8.958;2023-02-01T10:43:20;13.63;;;4.13;;
17228;SDS011;8731;50.364;8.958;2023-02-01T10:47:43;10.30;;;3.23;;
17228;SDS011;8731;50.364;8.958;2023-02-01T10:52:09;10.93;;;3.17;;
17228;SDS011;8731;50.364;8.958;2023-02-01T10:56:38;7.77;;;2.43;;
17228;SDS011;8731;50.364;8.958;2023-02-01T11:01:01;10.90;;;2.80;;
17228;SDS011;8731;50.364;8.958;2023-02-01T11:05:26;13.60;;;3.80;;
17228;SDS011;8731;50.364;8.958;2023-02-01T11:09:50;9.70;;;3.13;;
17228;SDS011;8731;50.364;8.958;2023-02-01T11:14:17;10.00;;;3.00;;
17228;SDS011;8731;50.364;8.958;2023-02-01T11:18:47;13.50;;;3.57;;
17228;SDS011;8731;50.364;8.958;2023-02-01T11:23:16;14.53;;;4.87;;
17228;SDS011;8731;50.364;8.958;2023-02-01T11:27:43;14.83;;;4.57;;
17228;SDS011;8731;50.364;8.958;2023-02-01T11:32:06;11.33;;;4.73;;
17228;SDS011;8731;50.364;8.958;2023-02-01T11:36:33;12.03;;;4.27;;
17228;SDS011;8731;50.364;8.958;2023-02-01T11:41:10;11.87;;;3.87;;
17228;SDS011;8731;50.364;8.958;2023-02-01T11:45:36;16.77;;;4.33;;
17228;SDS011;8731;50.364;8.958;2023-02-01T11:49:59;12.77;;;4.40;;
17228;SDS011;8731;50.364;8.958;2023-02-01T11:54:29;10.83;;;3.87;;
17228;SDS011;8731;50.364;8.958;2023-02-01T11:59:11;12.60;;;5.00;;
17228;SDS011;8731;50.364;8.958;2023-02-01T12:03:54;11.50;;;4.37;;
17228;SDS011;8731;50.364;8.958;2023-02-01T12:09:06;11.87;;;3.63;;
17228;SDS011;8731;50.364;8.958;2023-02-01T12:13:47;12.23;;;4.70;;
17228;SDS011;8731;50.364;8.958;2023-02-01T12:18:38;13.53;;;4.50;;
17228;SDS011;8731;50.364;8.958;2023-02-01T12:23:40;12.97;;;4.23;;
17228;SDS011;8731;50.364;8.958;2023-02-01T12:28:33;10.10;;;3.57;;
17228;SDS011;8731;50.364;8.958;2023-02-01T12:33:20;15.23;;;4.10;;
17228;SDS011;8731;50.364;8.958;2023-02-01T12:38:02;12.03;;;3.73;;
17228;SDS011;8731;50.364;8.958;2023-02-01T12:42:41;12.23;;;3.53;;
17228;SDS011;8731;50.364;8.958;2023-02-01T12:47:12;8.70;;;2.80;;
17228;SDS011;8731;50.364;8.958;2023-02-01T12:51:43;10.20;;;2.67;;
17228;SDS011;8731;50.364;8.958;2023-02-01T12:56:12;12.47;;;4.33;;
17228;SDS011;8731;50.364;8.958;2023-02-01T13:00:43;10.93;;;3.70;;
17228;SDS011;8731;50.364;8.958;2023-02-01T13:05:15;12.90;;;3.27;;
17228;SDS011;8731;50.364;8.958;2023-02-01T13:09:41;12.73;;;3.60;;
17228;SDS011;8731;50.364;8.958;2023-02-01T13:14:16;14.57;;;4.43;;
17228;SDS011;8731;50.364;8.958;2023-02-01T13:18:49;12.30;;;3.10;;
17228;SDS011;8731;50.364;8.958;2023-02-01T13:23:19;10.43;;;2.90;;
17228;SDS011;8731;50.364;8.958;2023-02-01T13:27:47;6.60;;;2.17;;
17228;SDS011;8731;50.364;8.958;2023-02-01T13:32:35;11.67;;;2.40;;
17228;SDS011;8731;50.364;8.958;2023-02-01T13:37:36;15.80;;;4.07;;
17228;SDS011;8731;50.364;8.958;2023-02-01T13:42:18;8.70;;;2.67;;
17228;SDS011;8731;50.364;8.958;2023-02-01T13:46:46;10.20;;;3.90;;
17228;SDS011;8731;50.364;8.958;2023-02-01T13:51:12;7.77;;;2.40;;
17228;SDS011;8731;50.364;8.958;2023-02-01T13:55:36;9.33;;;2.83;;
17228;SDS011;8731;50.364;8.958;2023-02-01T14:00:08;11.07;;;3.37;;
17228;SDS011;8731;50.364;8.958;2023-02-01T14:04:46;10.60;;;2.43;;
17228;SDS011;8731;50.364;8.958;2023-02-01T14:09:15;10.57;;;3.73;;
17228;SDS011;8731;50.364;8.958;2023-02-01T14:13:51;11.03;;;4.47;;
17228;SDS011;8731;50.364;8.958;2023-02-01T14:23:24;8.23;;;2.50;;
17228;SDS011;8731;50.364;8.958;2023-02-01T14:27:52;11.30;;;2.57;;
17228;SDS011;8731;50.364;8.958;2023-02-01T14:32:16;7.23;;;2.17;;
17228;SDS011;8731;50.364;8.958;2023-02-01T14:36:46;8.53;;;2.60;;
17228;SDS011;8731;50.364;8.958;2023-02-01T14:41:18;9.67;;;2.30;;
17228;SDS011;8731;50.364;8.958;2023-02-01T14:45:52;17.00;;;2.50;;
17228;SDS011;8731;50.364;8.958;2023-02-01T14:50:29;11.83;;;2.83;;
17228;SDS011;8731;50.364;8.958;2023-02-01T14:55:01;10.23;;;2.63;;
17228;SDS011;8731;50.364;8.958;2023-02-01T14:59:30;11.03;;;2.17;;
17228;SDS011;8731;50.364;8.958;2023-02-01T15:04:00;10.93;;;2.33;;
17228;SDS011;8731;50.364;8.958;2023-02-01T15:08:27;11.63;;;3.73;;
17228;SDS011;8731;50.364;8.958;2023-02-01T15:12:54;9.77;;;3.07;;
17228;SDS011;8731;50.364;8.958;2023-02-01T15:17:17;15.07;;;3.13;;
17228;SDS011;8731;50.364;8.958;2023-02-01T15:21:44;8.83;;;2.20;;
17228;SDS011;8731;50.364;8.958;2023-02-01T15:26:09;7.37;;;2.20;;
17228;SDS011;8731;50.364;8.958;2023-02-01T15:30:32;13.33;;;2.83;;
17228;SDS011;8731;50.364;8.958;2023-02-01T15:34:56;14.30;;;4.67;;
17228;SDS011;8731;50.364;8.958;2023-02-01T15:39:22;9.03;;;3.40;;
17228;SDS011;8731;50.364;8.958;2023-02-01T15:43:47;9.20;;;2.87;;
17228;SDS011;8731;50.364;8.958;2023-02-01T15:48:26;10.57;;;3.23;;
17228;SDS011;8731;50.364;8.958;2023-02-01T15:52:54;10.60;;;3.27;;
17228;SDS011;8731;50.364;8.958;2023-02-01T15:57:20;17.97;;;5.03;;
17228;SDS011;8731;50.364;8.958;2023-02-01T16:01:50;19.37;;;5.40;;
17228;SDS011;8731;50.364;8.958;2023-02-01T16:06:25;17.03;;;5.00;;
17228;SDS011;8731;50.364;8.958;2023-02-01T16:10:52;9.43;;;2.93;;
17228;SDS011;8731;50.364;8.958;2023-02-01T16:15:22;6.27;;;2.77;;
17228;SDS011;8731;50.364;8.958;2023-02-01T16:19:44;12.10;;;4.90;;
17228;SDS011;8731;50.364;8.958;2023-02-01T16:24:06;13.10;;;3.53;;
17228;SDS011;8731;50.364;8.958;2023-02-01T16:28:29;11.53;;;2.97;;
17228;SDS011;8731;50.364;8.958;2023-02-01T16:32:53;9.47;;;2.50;;
17228;SDS011;8731;50.364;8.958;2023-02-01T16:37:19;7.90;;;2.57;;
17228;SDS011;8731;50.364;8.958;2023-02-01T16:41:47;9.70;;;2.47;;
17228;SDS011;8731;50.364;8.958;2023-02-01T16:46:12;10.33;;;3.37;;
17228;SDS011;8731;50.364;8.958;2023-02-01T16:50:41;14.20;;;3.00;;
17228;SDS011;8731;50.364;8.958;2023-02-01T16:55:07;12.53;;;3.17;;
17228;SDS011;8731;50.364;8.958;2023-02-01T16:59:34;13.43;;;3.37;;
17228;SDS011;8731;50.364;8.958;2023-02-01T17:03:56;8.23;;;3.17;;
17228;SDS011;8731;50.364;8.958;2023-02-01T17:08:22;14.43;;;3.87;;
17228;SDS011;8731;50.364;8.958;2023-02-01T17:12:51;16.70;;;3.87;;
17228;SDS011;8731;50.364;8.958;2023-02-01T17:17:13;10.90;;;2.60;;
17228;SDS011;8731;50.364;8.958;2023-02-01T17:21:39;12.13;;;3.70;;
17228;SDS011;8731;50.364;8.958;2023-02-01T17:26:07;9.63;;;2.87;;
17228;SDS011;8731;50.364;8.958;2023-02-01T17:30:30;11.83;;;4.63;;
17228;SDS011;8731;50.364;8.958;2023-02-01T17:34:53;8.53;;;2.43;;
17228;SDS011;8731;50.364;8.958;2023-02-01T17:39:17;7.97;;;2.93;;
17228;SDS011;8731;50.364;8.958;2023-02-01T17:43:58;8.60;;;2.60;;
17228;SDS011;8731;50.364;8.958;2023-02-01T17:48:21;7.50;;;2.10;;
17228;SDS011;8731;50.364;8.958;2023-02-01T17:52:44;9.93;;;3.90;;
17228;SDS011;8731;50.364;8.958;2023-02-01T17:57:09;9.90;;;3.47;;
17228;SDS011;8731;50.364;8.958;2023-02-01T18:01:34;6.73;;;2.43;;
17228;SDS011;8731;50.364;8.958;2023-02-01T18:05:57;9.23;;;4.10;;
17228;SDS011;8731;50.364;8.958;2023-02-01T18:10:20;8.13;;;3.17;;
17228;SDS011;8731;50.364;8.958;2023-02-01T18:14:42;8.93;;;4.17;;
17228;SDS011;8731;50.364;8.958;2023-02-01T18:19:06;20.77;;;7.30;;
17228;SDS011;8731;50.364;8.958;2023-02-01T18:23:28;10.07;;;3.63;;
17228;SDS011;8731;50.364;8.958;2023-02-01T18:27:52;8.93;;;3.13;;
17228;SDS011;8731;50.364;8.958;2023-02-01T18:32:16;9.93;;;3.27;;
17228;SDS011;8731;50.364;8.958;2023-02-01T18:36:40;11.43;;;3.63;;
17228;SDS011;8731;50.364;8.958;2023-02-01T18:41:02;16.17;;;7.50;;
17228;SDS011;8731;50.364;8.958;2023-02-01T18:45:27;11.17;;;5.23;;
17228;SDS011;8731;50.364;8.958;2023-02-01T18:49:52;7.53;;;3.00;;
17228;SDS011;8731;50.364;8.958;2023-02-01T18:54:16;5.53;;;2.60;;
17228;SDS011;8731;50.364;8.958;2023-02-01T18:58:39;7.97;;;2.50;;
17228;SDS011;8731;50.364;8.958;2023-02-01T19:03:01;5.40;;;2.70;;
17228;SDS011;8731;50.364;8.958;2023-02-01T19:07:24;8.03;;;2.97;;
17228;SDS011;8731;50.364;8.958;2023-02-01T19:11:47;4.40;;;2.63;;
17228;SDS011;8731;50.364;8.958;2023-02-01T19:16:10;4.93;;;2.67;;
17228;SDS011;8731;50.364;8.958;2023-02-01T19:20:36;8.73;;;3.43;;
17228;SDS011;8731;50.364;8.958;2023-02-01T19:25:00;9.93;;;4.40;;
17228;SDS011;8731;50.364;8.958;2023-02-01T19:29:24;8.37;;;3.20;;
17228;SDS011;8731;50.364;8.958;2023-02-01T19:33:48;9.00;;;2.87;;
17228;SDS011;8731;50.364;8.958;2023-02-01T19:38:11;6.57;;;2.07;;
17228;SDS011;8731;50.364;8.958;2023-02-01T19:42:33;10.07;;;3.03;;
17228;SDS011;8731;50.364;8.958;2023-02-01T19:46:57;11.30;;;3.03;;
17228;SDS011;8731;50.364;8.958;2023-02-01T19:51:20;12.23;;;3.70;;
17228;SDS011;8731;50.364;8.958;2023-02-01T19:55:43;11.47;;;4.03;;
17228;SDS011;8731;50.364;8.958;2023-02-01T20:00:07;11.37;;;3.80;;
17228;SDS011;8731;50.364;8.958;2023-02-01T20:04:33;9.43;;;3.83;;
17228;SDS011;8731;50.364;8.958;2023-02-01T20:08:55;12.40;;;4.70;;
17228;SDS011;8731;50.364;8.958;2023-02-01T20:13:18;7.30;;;3.13;;
17228;SDS011;8731;50.364;8.958;2023-02-01T20:17:41;10.17;;;3.80;;
17228;SDS011;8731;50.364;8.958;2023-02-01T20:22:04;10.87;;;4.20;;
17228;SDS011;8731;50.364;8.958;2023-02-01T20:26:27;9.83;;;3.63;;
17228;SDS011;8731;50.364;8.958;2023-02-01T20:30:49;8.53;;;3.30;;
17228;SDS011;8731;50.364;8.958;2023-02-01T20:35:12;8.33;;;3.33;;
17228;SDS011;8731;50.364;8.958;2023-02-01T20:39:35;10.73;;;3.77;;
17228;SDS011;8731;50.364;8.958;2023-02-01T20:43:58;13.13;;;4.13;;
17228;SDS011;8731;50.364;8.958;2023-02-01T20:48:20;12.20;;;3.80;;
17228;SDS011;8731;50.364;8.958;2023-02-01T20:52:43;9.37;;;4.10;;
17228;SDS011;8731;50.364;8.958;2023-02-01T20:57:06;8.77;;;3.30;;
17228;SDS011;8731;50.364;8.958;2023-02-01T21:01:29;7.73;;;3.40;;
17228;SDS011;8731;50.364;8.958;2023-02-01T21:05:52;8.90;;;3.07;;
17228;SDS011;8731;50.364;8.958;2023-02-01T21:10:17;9.60;;;2.67;;
17228;SDS011;8731;50.364;8.958;2023-02-01T21:14:41;7.07;;;2.30;;
17228;SDS011;8731;50.364;8.958;2023-02-01T21:19:03;10.03;;;2.40;;
17228;SDS011;8731;50.364;8.958;2023-02-01T21:23:26;7.60;;;2.70;;
17228;SDS011;8731;50.364;8.958;2023-02-01T21:27:49;8.83;;;2.53;;
17228;SDS011;8731;50.364;8.958;2023-02-01T21:32:13;8.37;;;3.87;;
17228;SDS011;8731;50.364;8.958;2023-02-01T21:36:35;5.43;;;2.67;;
17228;SDS011;8731;50.364;8.958;2023-02-01T21:40:57;12.73;;;2.87;;
17228;SDS011;8731;50.364;8.958;2023-02-01T21:45:37;8.37;;;2.63;;
17228;SDS011;8731;50.364;8.958;2023-02-01T21:50:01;8.47;;;2.60;;
17228;SDS011;8731;50.364;8.958;2023-02-01T21:54:24;10.57;;;3.10;;
17228;SDS011;8731;50.364;8.958;2023-02-01T21:58:47;12.10;;;3.10;;
17228;SDS011;8731;50.364;8.958;2023-02-01T22:03:09;8.10;;;2.97;;
17228;SDS011;8731;50.364;8.958;2023-02-01T22:07:33;12.03;;;2.80;;
17228;SDS011;8731;50.364;8.958;2023-02-01T22:11:55;8.30;;;3.17;;
17228;SDS011;8731;50.364;8.958;2023-02-01T22:16:18;14.83;;;2.87;;
17228;SDS011;8731;50.364;8.958;2023-02-01T22:20:41;7.10;;;2.33;;
17228;SDS011;8731;50.364;8.958;2023-02-01T22:25:05;7.30;;;2.77;;
17228;SDS011;8731;50.364;8.958;2023-02-01T22:29:29;7.60;;;3.50;;
17228;SDS011;8731;50.364;8.958;2023-02-01T22:33:51;8.43;;;2.83;;
17228;SDS011;8731;50.364;8.958;2023-02-01T22:38:13;9.50;;;2.90;;
17228;SDS011;8731;50.364;8.958;2023-02-01T22:42:37;10.50;;;2.77;;
17228;SDS011;8731;50.364;8.958;2023-02-01T22:47:00;10.80;;;3.07;;
17228;SDS011;8731;50.364;8.958;2023-02-01T22:51:24;18.30;;;4.07;;
17228;SDS011;8731;50.364;8.958;2023-02-01T22:55:49;10.23;;;3.20;;
17228;SDS011;8731;50.364;8.958;2023-02-01T23:00:13;10.13;;;2.70;;
17228;SDS011;8731;50.364;8.958;2023-02-01T23:04:36;4.73;;;1.27;;
17228;SDS011;8731;50.364;8.958;2023-02-01T23:08:59;4.33;;;1.03;;
17228;SDS011;8731;50.364;8.958;2023-02-01T23:13:30;1.90;;;0.90;;
17228;SDS011;8731;50.364;8.958;2023-02-01T23:17:55;2.83;;;1.40;;
17228;SDS011;8731;50.364;8.958;2023-02-01T23:22:17;6.23;;;2.10;;
17228;SDS011;8731;50.364;8.958;2023-02-01T23:26:40;10.43;;;3.30;;
17228;SDS011;8731;50.364;8.958;2023-02-01T23:31:05;2.80;;;1.30;;
17228;SDS011;8731;50.364;8.958;2023-02-01T23:35:30;2.00;;;0.80;;
17228;SDS011;8731;50.364;8.958;2023-02-01T23:39:52;1.20;;;0.87;;
17228;SDS011;8731;50.364;8.958;2023-02-01T23:44:15;2.60;;;0.90;;
17228;SDS011;8731;50.364;8.958;2023-02-01T23:48:37;3.33;;;1.00;;
17228;SDS011;8731;50.364;8.958;2023-02-01T23:53:01;1.77;;;1.00;;
17228;SDS011;8731;50.364;8.958;2023-02-01T23:57:23;44.03;;;17.30;;
